Kladno, Czech Republic
Current Conditions -  °F | °C
As of 12:30 AM on Monday 22 Dec 2014 (Local Time) from LKPR Reporting Station
Broken Clouds Broken Clouds  
Wind Chill: 31°   Ceiling: 2700
Heat Index: 41°   Visibility: 6mi
Dew Point: 34°   Wind: 23mph
Humidity: 76%   Direction: 240°WSW
Pressure: 30.18"   Gusts: 35mph
Location:  50.15°N, 14.09°E
Report Text: LKPR 212230Z 24020G30KT 9999 BKN027 05/01 Q1022 NOSIG
Loading
Personal Weather Stations






























Interactive Weather Map New forecast layout! Learn more

10-Day Weather Forecast

Advertisements
Track Severe Weather on mobile